Terminal Aerodrome Forecast
Issued by NWS

Home | Current Version | Previous Version | Text Only | Print | Product List | Glossary On
Versions: 1 2 3 4 5 6 7 8 9 10 11 12
000
FTUS45 KGJT 301720
TAFASE
TAF
KASE 301720Z 3018/3118 31005KT P6SM SKC
     FM302000 35005KT P6SM FEW200
     FM310100 20007KT P6SM FEW200
     FM311300 VRB03KT P6SM FEW200=

USA.gov is the U.S. government's official web portal to all federal, state and local government web resources and services.